Accueil
METAR-TAF:

METAR-TAF

Aéroports :

Alofi, Niue

Aéroport international de Niue

latitude: 19-04S, longitude: 169-55W, altitude: 20 m

Observation

Le bulletin a été fait il y a 32 minutes, à 22:00 UTC
Vent 12 kt de est/sud-est
Température 28°C
Humidité 66%
Pression 1019 hPa

METAR: NIUE 232200Z AUTO 11012KT //// ////// 28/21 Q1019

Heure: 11:32 (22:32 UTC)

Prévision

Le bulletin a été fait il y a 5 heures et 28 minutes, à 17:04 UTC
Prévision valable du 23 à 18 UTC au 24 à 18 UTC
Vent 8 kt de sud-est
Visibilité 10 km ou plus
Nuages épars à une hauteur de 1800 ft

TAF: NIUE 231704Z 2318/2418 13008KT 9999 SCT018

Observations et prévisions météorologiques de plus de 4000 aéroports (messages METAR et TAF).

Les stations disponibles sont représentées par des disques jaunes et rouges sur la carte.

Passer la souris dessus pour voir le nom de la station.

Cliquer dessus pour voir les observations et prévisions météorologiques.

Pour changer de carte: cliquez sur les boutons verts avec une croix noire pour zoomer, sur le bouton vert avec un tiret pour effectuer un zoom arrière, ou sur les flèches vertes pour les cartes adjacentes.


METAR-TAF: